createdAt,value
2022-09-04T00:02:41.186Z,11.40
2022-09-04T00:05:22.015Z,11.32
2022-09-04T00:08:13.430Z,11.24
2022-09-04T00:10:56.348Z,11.19
2022-09-04T00:13:27.569Z,11.14
2022-09-04T00:15:59.556Z,11.10
2022-09-04T00:18:30.824Z,11.06
2022-09-04T00:21:11.961Z,11.03
2022-09-04T00:23:53.820Z,10.98
2022-09-04T00:26:41.341Z,10.96
2022-09-04T00:29:30.887Z,10.94
2022-09-04T00:32:24.942Z,10.94
2022-09-04T00:35:10.628Z,10.93
2022-09-04T00:37:40.019Z,10.92
2022-09-04T00:40:42.096Z,10.91
2022-09-04T00:43:38.241Z,10.89
2022-09-04T00:46:25.289Z,10.87
2022-09-04T00:49:11.709Z,10.85
2022-09-04T00:51:46.508Z,10.81
2022-09-04T00:54:47.140Z,10.77
2022-09-04T00:57:57.731Z,10.73
2022-09-04T01:00:26.981Z,10.68
2022-09-04T01:03:20.800Z,10.63
2022-09-04T01:06:05.484Z,10.60
2022-09-04T01:09:11.684Z,10.55
2022-09-04T01:11:52.911Z,10.49
2022-09-04T01:14:25.391Z,10.45
2022-09-04T01:17:02.144Z,10.40
2022-09-04T01:19:52.392Z,10.34
2022-09-04T01:22:30.141Z,10.30
2022-09-04T01:25:22.495Z,10.24
2022-09-04T01:28:18.663Z,10.18
2022-09-04T01:30:59.776Z,10.15
2022-09-04T01:33:54.891Z,10.10
2022-09-04T01:36:35.020Z,10.05
2022-09-04T01:39:01.996Z,9.98
2022-09-04T01:42:27.922Z,9.94
2022-09-04T01:44:54.660Z,9.90
2022-09-04T01:47:23.704Z,9.88
2022-09-04T01:50:04.258Z,9.85
2022-09-04T01:52:50.227Z,9.79
2022-09-04T01:55:27.154Z,9.74
2022-09-04T01:57:58.336Z,9.70
2022-09-04T02:00:25.636Z,9.66
2022-09-04T02:03:22.470Z,9.60
2022-09-04T02:06:22.389Z,9.56
2022-09-04T02:08:51.830Z,9.52
2022-09-04T02:11:20.598Z,9.49
2022-09-04T02:14:15.731Z,9.47
2022-09-04T02:17:04.788Z,9.44
2022-09-04T02:19:34.566Z,9.39
2022-09-04T02:22:23.664Z,9.36
2022-09-04T02:25:15.139Z,9.33
2022-09-04T02:27:53.545Z,9.32
2022-09-04T02:30:20.571Z,9.29
2022-09-04T02:32:58.662Z,9.29
2022-09-04T02:35:41.647Z,9.27
2022-09-04T02:38:53.394Z,9.21
2022-09-04T02:41:38.876Z,9.16
2022-09-04T02:44:36.483Z,9.13
2022-09-04T02:48:38.164Z,9.12
2022-09-04T02:51:14.045Z,9.06
2022-09-04T02:53:51.574Z,9.02
2022-09-04T02:56:26.524Z,8.98
2022-09-04T02:58:57.750Z,8.94
2022-09-04T03:01:32.975Z,8.91
2022-09-04T03:04:49.984Z,8.88
2022-09-04T03:07:31.648Z,8.87
2022-09-04T03:10:11.688Z,8.84
2022-09-04T03:13:00.381Z,8.81
2022-09-04T03:15:35.041Z,8.79
2022-09-04T03:18:17.127Z,8.78
2022-09-04T03:20:58.131Z,8.76
2022-09-04T03:23:39.979Z,8.72
2022-09-04T03:26:31.791Z,8.69
2022-09-04T03:29:01.163Z,8.67
2022-09-04T03:31:49.195Z,8.66
2022-09-04T03:34:34.301Z,8.64
2022-09-04T03:37:04.862Z,8.63
2022-09-04T03:39:46.569Z,8.63
2022-09-04T03:42:20.705Z,8.63
2022-09-04T03:45:26.886Z,8.65
2022-09-04T03:48:08.352Z,8.65
2022-09-04T03:50:44.045Z,8.67
2022-09-04T03:53:35.838Z,8.68
2022-09-04T03:56:20.405Z,8.68
2022-09-04T03:59:02.593Z,8.69
2022-09-04T04:01:51.665Z,8.74
2022-09-04T04:04:37.054Z,8.79
2022-09-04T04:07:17.960Z,8.88
2022-09-04T04:10:03.683Z,8.95
2022-09-04T04:13:00.494Z,9.03
2022-09-04T04:15:50.461Z,9.12
2022-09-04T04:18:20.115Z,9.22
2022-09-04T04:21:10.570Z,9.37
2022-09-04T04:23:49.294Z,9.58
2022-09-04T04:26:21.774Z,9.83
2022-09-04T04:29:21.055Z,10.06
2022-09-04T04:32:11.690Z,10.33
2022-09-04T04:34:49.889Z,10.60
2022-09-04T04:37:43.495Z,10.93
2022-09-04T04:40:18.151Z,11.31
2022-09-04T04:42:53.396Z,11.68
2022-09-04T04:45:46.804Z,12.07
2022-09-04T04:48:26.563Z,12.47
2022-09-04T04:51:03.853Z,12.79
2022-09-04T04:53:51.690Z,13.05
2022-09-04T04:56:26.594Z,13.28
2022-09-04T04:59:20.655Z,13.40
2022-09-04T05:02:26.187Z,13.51
2022-09-04T05:04:58.191Z,13.66
2022-09-04T05:07:48.624Z,13.78
2022-09-04T05:10:18.583Z,13.94
2022-09-04T05:13:09.334Z,14.05
2022-09-04T05:16:05.167Z,14.17
2022-09-04T05:18:35.848Z,14.31
2022-09-04T05:21:08.899Z,14.43
2022-09-04T05:23:52.575Z,14.56
2022-09-04T05:26:43.696Z,14.74
2022-09-04T05:29:28.152Z,14.92
2022-09-04T05:32:02.836Z,15.03
2022-09-04T05:34:48.037Z,15.13
2022-09-04T05:37:33.225Z,15.23
2022-09-04T05:40:03.852Z,15.37
2022-09-04T05:42:33.728Z,15.43
2022-09-04T05:45:28.628Z,15.48
2022-09-04T05:48:09.943Z,15.48
2022-09-04T05:50:46.912Z,15.45
2022-09-04T05:53:19.545Z,15.40
2022-09-04T05:56:23.623Z,15.35
2022-09-04T05:58:57.521Z,15.29
2022-09-04T06:01:36.017Z,15.24
2022-09-04T06:04:05.786Z,15.18
2022-09-04T06:06:40.798Z,15.19
2022-09-04T06:09:26.825Z,15.19
2022-09-04T06:12:10.370Z,15.17
2022-09-04T06:14:57.454Z,15.14
2022-09-04T06:18:18.631Z,15.15
2022-09-04T06:20:57.948Z,15.17
2022-09-04T06:23:43.443Z,15.18
2022-09-04T06:26:18.685Z,15.17
2022-09-04T06:29:15.294Z,15.18
2022-09-04T06:32:15.247Z,15.19
2022-09-04T06:35:16.846Z,15.25
2022-09-04T06:37:51.777Z,15.31
2022-09-04T06:40:29.239Z,15.36
2022-09-04T06:43:08.437Z,15.37
2022-09-04T06:46:02.398Z,15.40
2022-09-04T06:48:39.399Z,15.46
2022-09-04T06:51:36.552Z,15.50
2022-09-04T06:54:26.405Z,15.53
2022-09-04T06:57:31.303Z,15.54
2022-09-04T07:00:30.081Z,15.59
2022-09-04T07:03:02.536Z,15.63
2022-09-04T07:05:33.646Z,15.68
2022-09-04T07:08:27.583Z,15.75
2022-09-04T07:11:13.098Z,15.85
2022-09-04T07:14:20.189Z,15.93
2022-09-04T07:17:11.836Z,16.03
2022-09-04T07:19:56.794Z,16.08
2022-09-04T07:22:45.129Z,16.10
2022-09-04T07:25:44.315Z,16.08
2022-09-04T07:28:48.721Z,16.03
2022-09-04T07:31:47.912Z,16.04
2022-09-04T07:34:37.131Z,16.05
2022-09-04T07:37:09.418Z,16.03
2022-09-04T07:39:53.148Z,16.03
2022-09-04T07:42:46.890Z,16.07
2022-09-04T07:45:35.300Z,16.07
2022-09-04T07:48:11.223Z,16.12
2022-09-04T07:51:10.250Z,16.19
2022-09-04T07:54:02.038Z,16.30
2022-09-04T07:56:48.208Z,16.36
2022-09-04T07:59:27.367Z,16.38
2022-09-04T08:02:25.090Z,16.41
2022-09-04T08:05:17.709Z,16.44
2022-09-04T08:08:03.815Z,16.46
2022-09-04T08:11:08.155Z,16.45
2022-09-04T08:13:59.382Z,16.48
2022-09-04T08:16:41.203Z,16.55
2022-09-04T08:19:26.864Z,16.58
2022-09-04T08:21:53.645Z,16.57
2022-09-04T08:24:45.385Z,16.58
2022-09-04T08:27:47.810Z,16.64
2022-09-04T08:30:14.896Z,16.66
2022-09-04T08:33:18.412Z,16.68
2022-09-04T08:36:07.570Z,16.73
2022-09-04T08:39:07.613Z,16.71
2022-09-04T08:41:56.300Z,16.72
2022-09-04T08:44:44.842Z,16.77
2022-09-04T08:47:35.797Z,16.79
2022-09-04T08:50:39.102Z,16.75
2022-09-04T08:53:14.878Z,16.78
2022-09-04T08:56:06.362Z,16.83
2022-09-04T08:58:45.746Z,16.85
2022-09-04T09:01:49.841Z,16.86
2022-09-04T09:04:36.248Z,16.80
2022-09-04T09:07:16.411Z,16.69
2022-09-04T09:09:45.862Z,16.64
2022-09-04T09:12:57.672Z,16.65
2022-09-04T09:15:40.059Z,16.77
2022-09-04T09:18:25.438Z,16.91
2022-09-04T09:21:08.326Z,16.99
2022-09-04T09:23:39.032Z,17.07
2022-09-04T09:26:17.975Z,17.16
2022-09-04T09:28:50.703Z,17.22
2022-09-04T09:31:27.093Z,17.29
2022-09-04T09:34:30.602Z,17.40
2022-09-04T09:37:09.186Z,17.47
2022-09-04T09:39:35.970Z,17.50
2022-09-04T09:42:31.643Z,17.54
2022-09-04T09:45:41.175Z,17.58
2022-09-04T09:48:23.195Z,17.63
2022-09-04T09:51:14.596Z,17.66
2022-09-04T09:53:47.683Z,17.67
2022-09-04T09:56:35.888Z,17.72
2022-09-04T09:59:25.766Z,17.74
2022-09-04T10:02:38.402Z,17.70
2022-09-04T10:05:22.857Z,17.62
2022-09-04T10:08:01.384Z,17.53
2022-09-04T10:10:40.770Z,17.53
2022-09-04T10:13:28.992Z,17.58
2022-09-04T10:16:16.004Z,17.59
2022-09-04T10:19:07.279Z,17.63
2022-09-04T10:22:02.057Z,17.71
2022-09-04T10:24:53.567Z,17.82
2022-09-04T10:27:43.293Z,17.94
2022-09-04T10:30:20.724Z,18.01
2022-09-04T10:33:08.018Z,18.00
2022-09-04T10:36:08.901Z,17.92
2022-09-04T10:39:17.513Z,17.81
2022-09-04T10:42:09.232Z,17.69
2022-09-04T10:44:48.387Z,17.59
2022-09-04T10:47:24.645Z,17.55
2022-09-04T10:49:59.744Z,17.56
2022-09-04T10:52:33.404Z,17.62
2022-09-04T10:55:18.872Z,17.72
2022-09-04T10:58:00.184Z,17.75
2022-09-04T11:01:13.675Z,17.74
2022-09-04T11:04:14.410Z,17.70
2022-09-04T11:07:05.285Z,17.70
2022-09-04T11:09:35.083Z,17.72
2022-09-04T11:12:13.996Z,17.79
2022-09-04T11:14:44.281Z,17.88
2022-09-04T11:17:28.352Z,17.96
2022-09-04T11:20:18.564Z,18.01
2022-09-04T11:23:12.336Z,18.10
2022-09-04T11:26:08.139Z,18.21
2022-09-04T11:28:44.336Z,18.27
2022-09-04T11:31:35.579Z,18.31
2022-09-04T11:34:20.331Z,18.35
2022-09-04T11:37:09.891Z,18.39
2022-09-04T11:39:58.558Z,18.42
2022-09-04T11:42:29.888Z,18.40
2022-09-04T11:45:16.860Z,18.37
2022-09-04T11:48:05.485Z,18.29
2022-09-04T11:50:56.413Z,18.19
2022-09-04T11:53:47.231Z,18.06
2022-09-04T11:56:55.403Z,17.94
2022-09-04T12:00:12.218Z,17.85
2022-09-04T12:02:57.783Z,17.85
2022-09-04T12:05:39.458Z,17.91
2022-09-04T12:08:31.645Z,18.01
2022-09-04T12:11:18.611Z,18.13
2022-09-04T12:13:47.919Z,18.23
2022-09-04T12:16:18.244Z,18.25
2022-09-04T12:19:13.587Z,18.22
2022-09-04T12:22:01.481Z,18.14
2022-09-04T12:24:28.218Z,18.09
2022-09-04T12:27:07.831Z,18.08
2022-09-04T12:29:55.831Z,18.10
2022-09-04T12:32:42.594Z,18.15
2022-09-04T12:35:31.619Z,18.19
2022-09-04T12:38:24.570Z,18.22
2022-09-04T12:40:58.486Z,18.29
2022-09-04T12:43:50.041Z,18.37
2022-09-04T12:46:29.009Z,18.49
2022-09-04T12:49:01.798Z,18.59
2022-09-04T12:51:43.746Z,18.67
2022-09-04T12:54:38.629Z,18.72
2022-09-04T12:57:25.866Z,18.75
2022-09-04T13:00:02.001Z,18.77
2022-09-04T13:02:35.715Z,18.72
2022-09-04T13:05:21.715Z,18.68
2022-09-04T13:08:11.727Z,18.68
2022-09-04T13:10:53.698Z,18.66
2022-09-04T13:13:33.931Z,18.63
2022-09-04T13:16:17.302Z,18.58
2022-09-04T13:19:08.552Z,18.51
2022-09-04T13:21:41.154Z,18.40
2022-09-04T13:24:19.648Z,18.32
2022-09-04T13:27:09.189Z,18.36
2022-09-04T13:30:06.899Z,18.42
2022-09-04T13:32:46.581Z,18.51
2022-09-04T13:35:19.958Z,18.60
2022-09-04T13:38:05.695Z,18.67
2022-09-04T13:40:38.202Z,18.69
2022-09-04T13:43:08.800Z,18.68
2022-09-04T13:45:44.226Z,18.64
2022-09-04T13:48:26.609Z,18.58
2022-09-04T13:50:55.808Z,18.51
2022-09-04T13:53:28.574Z,18.44
2022-09-04T13:55:58.343Z,18.38
2022-09-04T13:58:38.491Z,18.35
2022-09-04T14:01:09.830Z,18.33
2022-09-04T14:03:51.489Z,18.30
2022-09-04T14:06:20.862Z,18.27
2022-09-04T14:09:04.449Z,18.25
2022-09-04T14:12:10.461Z,18.22
2022-09-04T14:15:30.805Z,18.18
2022-09-04T14:18:45.339Z,18.14
2022-09-04T14:21:58.093Z,18.09
2022-09-04T14:24:32.885Z,18.06
2022-09-04T14:27:25.551Z,18.05
2022-09-04T14:30:17.196Z,18.06
2022-09-04T14:32:57.706Z,18.11
2022-09-04T14:35:28.373Z,18.15
2022-09-04T14:38:16.160Z,18.16
2022-09-04T14:40:49.196Z,18.15
2022-09-04T14:43:22.293Z,18.14
2022-09-04T14:46:06.931Z,18.11
2022-09-04T14:48:40.558Z,18.08
2022-09-04T14:51:22.577Z,18.05
2022-09-04T14:53:51.825Z,18.01
2022-09-04T14:56:31.720Z,17.97
2022-09-04T14:59:21.324Z,17.91
2022-09-04T15:05:03.426Z,17.79
2022-09-04T15:07:42.384Z,17.70
2022-09-04T15:10:24.332Z,17.65
2022-09-04T15:13:00.250Z,17.61
2022-09-04T15:15:36.062Z,17.59
2022-09-04T15:18:40.003Z,17.60
2022-09-04T15:21:19.404Z,17.60
2022-09-04T15:24:01.248Z,17.60
2022-09-04T15:26:40.676Z,17.60
2022-09-04T15:29:32.155Z,17.60
2022-09-04T15:32:12.295Z,17.61
2022-09-04T15:34:41.439Z,17.60
2022-09-04T15:37:22.527Z,17.60
2022-09-04T15:40:04.311Z,17.59
2022-09-04T15:43:03.913Z,17.57
2022-09-04T15:45:50.906Z,17.55
2022-09-04T15:48:40.964Z,17.54
2022-09-04T15:51:35.494Z,17.52
2022-09-04T15:54:13.245Z,17.48
2022-09-04T15:56:52.597Z,17.44
2022-09-04T15:59:22.468Z,17.42
2022-09-04T16:02:00.612Z,17.38
2022-09-04T16:05:03.342Z,17.30
2022-09-04T16:07:40.368Z,17.17
2022-09-04T16:10:13.550Z,16.98
2022-09-04T16:12:56.856Z,16.78
2022-09-04T16:15:40.853Z,16.57
2022-09-04T16:18:37.768Z,16.42
2022-09-04T16:21:05.596Z,16.27
2022-09-04T16:23:34.349Z,16.12
2022-09-04T16:26:10.273Z,16.00
2022-09-04T16:28:45.573Z,15.85
2022-09-04T16:31:30.855Z,15.70
2022-09-04T16:34:26.973Z,15.54
2022-09-04T16:37:01.926Z,15.36
2022-09-04T16:39:36.356Z,15.19
2022-09-04T16:42:25.298Z,15.04
2022-09-04T16:45:05.900Z,14.86
2022-09-04T16:47:54.566Z,14.70
2022-09-04T16:50:40.174Z,14.53
2022-09-04T16:53:23.443Z,14.36
2022-09-04T16:55:58.743Z,14.19
2022-09-04T16:58:40.029Z,14.05
2022-09-04T17:01:14.703Z,13.93
2022-09-04T17:04:12.653Z,13.82
2022-09-04T17:06:59.296Z,13.67
2022-09-04T17:09:29.094Z,13.55
2022-09-04T17:11:58.757Z,13.46
2022-09-04T17:14:30.939Z,13.36
2022-09-04T17:17:35.458Z,13.28
2022-09-04T17:20:06.630Z,13.17
2022-09-04T17:28:57.472Z,13.08
2022-09-04T17:29:12.272Z,12.88
2022-09-04T17:29:14.174Z,12.99
2022-09-04T17:31:28.773Z,12.78
2022-09-04T17:40:44.054Z,12.70
2022-09-04T17:40:46.826Z,12.52
2022-09-04T17:40:50.300Z,12.59
2022-09-04T17:43:23.329Z,12.45
2022-09-04T17:46:20.740Z,12.38
2022-09-04T17:48:47.566Z,12.29
2022-09-04T17:51:15.785Z,12.21
2022-09-04T17:53:47.244Z,12.14
2022-09-04T17:56:26.585Z,12.06
2022-09-04T17:59:17.724Z,12.01
2022-09-04T18:01:50.760Z,11.96
2022-09-04T18:04:32.214Z,11.92
2022-09-04T18:07:30.084Z,11.87
2022-09-04T18:10:23.843Z,11.82
2022-09-04T18:12:57.718Z,11.78
2022-09-04T18:15:35.704Z,11.73
2022-09-04T18:18:12.380Z,11.68
2022-09-04T18:20:53.503Z,11.66
2022-09-04T18:23:51.217Z,11.64
2022-09-04T18:26:41.518Z,11.60
2022-09-04T18:32:55.715Z,11.56
2022-09-04T18:37:06.780Z,11.51
2022-09-04T18:37:26.905Z,11.46
2022-09-04T18:39:10.022Z,11.40
2022-09-04T18:50:23.952Z,11.30
2022-09-04T18:50:35.117Z,11.26
2022-09-04T18:50:40.105Z,11.34
2022-09-04T18:51:14.616Z,11.21
2022-09-04T18:53:49.078Z,11.18
2022-09-04T18:56:20.947Z,11.15
2022-09-04T18:59:18.895Z,11.14
2022-09-04T19:01:52.381Z,11.11
2022-09-04T19:04:40.862Z,11.07
2022-09-04T19:07:31.896Z,11.04
2022-09-04T19:10:04.185Z,11.04
2022-09-04T19:12:49.928Z,11.04
2022-09-04T19:15:45.839Z,11.05
2022-09-04T19:18:17.753Z,11.05
2022-09-04T19:20:48.377Z,11.04
2022-09-04T19:23:22.590Z,11.05
2022-09-04T19:25:54.791Z,11.09
2022-09-04T19:28:39.696Z,11.12
2022-09-04T19:31:17.731Z,11.16
2022-09-04T19:34:09.483Z,11.16
2022-09-04T19:36:54.852Z,11.16
2022-09-04T19:45:12.508Z,11.16
2022-09-04T19:46:07.204Z,11.14
2022-09-04T19:46:15.176Z,11.17
2022-09-04T19:48:29.687Z,11.21
2022-09-04T19:53:19.617Z,11.23
2022-09-04T19:53:52.830Z,11.24
2022-09-04T19:57:32.720Z,11.22
2022-09-04T20:00:43.208Z,11.20
2022-09-04T20:03:01.875Z,11.17
2022-09-04T20:05:32.849Z,11.14
2022-09-04T20:08:16.787Z,11.15
2022-09-04T20:11:05.898Z,11.19
2022-09-04T20:13:39.839Z,11.21
2022-09-04T20:16:10.562Z,11.21
2022-09-04T20:18:42.277Z,11.22
2022-09-04T20:21:18.164Z,11.22
2022-09-04T20:23:56.121Z,11.23
2022-09-04T20:26:30.784Z,11.23
2022-09-04T20:29:23.307Z,11.22
2022-09-04T20:31:56.805Z,11.21
2022-09-04T20:34:25.386Z,11.20
2022-09-04T20:37:13.651Z,11.21
2022-09-04T20:39:43.602Z,11.20
2022-09-04T20:42:17.941Z,11.17
2022-09-04T20:46:35.573Z,11.15
2022-09-04T20:52:42.793Z,11.15
2022-09-04T20:52:58.850Z,11.18
2022-09-04T20:54:33.874Z,11.23
2022-09-04T21:01:32.503Z,11.24
2022-09-04T21:03:19.970Z,11.24
2022-09-04T21:03:28.253Z,11.27
2022-09-04T21:06:04.338Z,11.33
2022-09-04T21:08:52.332Z,11.41
2022-09-04T21:11:41.657Z,11.50
2022-09-04T21:14:21.402Z,11.55
2022-09-04T21:17:34.189Z,11.59
2022-09-04T21:20:17.184Z,11.63
2022-09-04T21:22:49.444Z,11.67
2022-09-04T21:25:36.191Z,11.71
2022-09-04T21:28:26.785Z,11.76
2022-09-04T21:30:58.624Z,11.83
2022-09-04T21:34:02.380Z,11.89
2022-09-04T21:36:47.146Z,11.96
2022-09-04T21:39:33.616Z,11.99
2022-09-04T21:42:22.229Z,12.03
2022-09-04T21:45:00.066Z,12.06
2022-09-04T21:47:44.943Z,12.10
2022-09-04T21:50:49.856Z,12.14
2022-09-04T21:53:26.830Z,12.17
2022-09-04T22:02:30.400Z,12.19
2022-09-04T22:02:44.437Z,12.23
2022-09-04T22:02:54.324Z,12.26
2022-09-04T22:05:41.514Z,12.26
2022-09-04T22:13:00.079Z,12.27
2022-09-04T22:13:41.681Z,12.25
2022-09-04T22:14:31.332Z,12.25
2022-09-04T22:17:27.387Z,12.22
2022-09-04T22:20:07.017Z,12.20
2022-09-04T22:22:58.565Z,12.18
2022-09-04T22:25:47.955Z,12.17
2022-09-04T22:28:25.801Z,12.17
2022-09-04T22:31:30.608Z,12.17
2022-09-04T22:34:26.119Z,12.17
2022-09-04T22:37:08.045Z,12.15
2022-09-04T22:40:06.255Z,12.11
2022-09-04T22:42:37.191Z,12.08
2022-09-04T22:45:41.250Z,12.05
2022-09-04T22:48:23.354Z,12.00
2022-09-04T22:50:58.540Z,11.94
2022-09-04T22:53:44.089Z,11.88
2022-09-04T22:56:24.563Z,11.81
2022-09-04T22:59:27.424Z,11.78
2022-09-04T23:02:14.082Z,11.75
2022-09-04T23:04:53.265Z,11.67
2022-09-04T23:11:39.997Z,11.62
2022-09-04T23:13:52.005Z,11.58
2022-09-04T23:13:56.457Z,11.55
2022-09-04T23:16:17.577Z,11.51
2022-09-04T23:21:36.056Z,11.48
2022-09-04T23:26:41.675Z,11.44
2022-09-04T23:26:49.397Z,11.45
2022-09-04T23:28:28.058Z,11.41
2022-09-04T23:31:07.064Z,11.42
2022-09-04T23:33:50.135Z,11.44
2022-09-04T23:36:53.732Z,11.45
2022-09-04T23:39:48.374Z,11.46
2022-09-04T23:42:45.271Z,11.47
2022-09-04T23:45:34.719Z,11.47
2022-09-04T23:48:04.855Z,11.46
2022-09-04T23:50:43.776Z,11.45
2022-09-04T23:53:40.975Z,11.45
2022-09-04T23:56:19.854Z,11.45
2022-09-04T23:59:33.324Z,11.43
